Ana Sayfa
METAR-TAF:

METAR-TAF

Havaalanları :

Muskoka, Ontario, Kanada

Enlem: 44-58N, Boylam: 079-18W, yükseklik: 280 m

Güncel hava durumu gözlemi

Rapor saat 03:00 UTC de 33 dakika önce yapıldı.
Rüzgar kuzeybatıdan 7 kt
Sıcaklık -6°C
Nem 86%
Basınç 1021 hPa
Görüş mesafesi: 14.5 km
2700 ft yükseklikte az bulutlu
4000 ft yükseklikte çok bulutlu
hafif kar

METAR: CYQA 070300Z AUTO 32007KT 9SM -SN FEW027 OVC040 M06/M08 A3015 RMK SLP229

Saat: 22:33 (03:33 UTC)

Tahmin

Rapor saat 00:44 UTC de 2 saat ve 49 dakika önce yapıldı.
Ayın 07'si saat 00 UTC'den ayın 07'si saat 03 UTC'ye kadar geçerli Tahmin
Rüzgar değişken yönden 3 kt
1500 ft yükseklikte çok bulutlu
hafif kar
Geçici
ayın 07'si saat 00 UTC'den ayın 07'si saat 03 UTC'ye kadar
Görüş mesafesi: 9.7 km
2500 ft yükseklikte çok bulutlu
hafif kar

TAF: CYQA 070044Z 0700/0703 VRB03KT 11/2SM -SN OVC015 TEMPO 0700/0703 6SM -SN OVC025 RMK FCST BASED ON AUTO OBS. NXT FCST WILL BE ISSUED AT 071245Z

4.000'den fazla havaalanı için hava durumu gözlemleri ve tahminleri (METAR ve TAF raporları).

Kullanılabilir istasyonlar harita üzerinde sarı ve kırmızı noktalarla gösterilir.

İstasyonun adını görmek için fareyi noktanın üzerinde gezdirin.

Sonrasında hava gözlem ve tahminlerini görmek için tıklayın.

Haritayı değiştirmek için: yaklaştırmak için siyah artı işaretli yeşil düğmeye ve uzaklaştırmak için de eksi işaretli düğmeye hızla tıklayın; bitişik haritalar için yeşil okları kullanın.


METAR-TAF: